createdAt,value
2023-02-08T00:01:11.296Z,3.03
2023-02-08T00:03:39.591Z,3.47
2023-02-08T00:06:08.766Z,3.70
2023-02-08T00:08:37.831Z,3.13
2023-02-08T00:11:06.733Z,4.20
2023-02-08T00:13:35.334Z,3.63
2023-02-08T00:16:04.890Z,3.23
2023-02-08T00:18:32.782Z,4.30
2023-02-08T00:21:00.633Z,3.97
2023-02-08T00:23:28.721Z,3.60
2023-02-08T00:25:56.591Z,3.37
2023-02-08T00:28:24.636Z,3.67
2023-02-08T00:30:53.394Z,3.40
2023-02-08T00:33:22.630Z,3.10
2023-02-08T00:35:50.588Z,3.30
2023-02-08T00:38:18.468Z,3.70
2023-02-08T00:40:46.326Z,3.60
2023-02-08T00:43:14.217Z,4.30
2023-02-08T00:45:42.235Z,4.23
2023-02-08T00:48:10.072Z,3.87
2023-02-08T00:50:39.491Z,3.30
2023-02-08T00:53:07.534Z,4.10
2023-02-08T00:55:35.391Z,3.03
2023-02-08T00:58:03.264Z,4.03
2023-02-08T01:00:31.161Z,4.13
2023-02-08T01:02:59.054Z,3.73
2023-02-08T01:05:26.915Z,3.53
2023-02-08T01:07:56.093Z,3.90
2023-02-08T01:10:23.972Z,2.93
2023-02-08T01:12:51.870Z,4.50
2023-02-08T01:15:19.834Z,3.40
2023-02-08T01:17:47.706Z,3.87
2023-02-08T01:20:15.610Z,3.57
2023-02-08T01:22:43.491Z,3.57
2023-02-08T01:25:12.712Z,4.07
2023-02-08T01:27:40.602Z,3.40
2023-02-08T01:30:09.727Z,4.10
2023-02-08T01:32:37.784Z,4.10
2023-02-08T01:35:06.315Z,3.73
2023-02-08T01:37:34.174Z,3.83
2023-02-08T01:40:02.038Z,3.50
2023-02-08T01:42:31.267Z,3.50
2023-02-08T01:45:24.339Z,3.97
2023-02-08T01:47:56.297Z,2.90
2023-02-08T01:50:28.288Z,3.27
2023-02-08T01:52:56.258Z,3.13
2023-02-08T01:55:29.176Z,3.17
2023-02-08T01:58:02.528Z,3.30
2023-02-08T02:00:32.084Z,3.20
2023-02-08T02:03:01.607Z,3.70
2023-02-08T02:05:34.704Z,3.17
2023-02-08T02:08:02.802Z,3.50
2023-02-08T02:10:32.306Z,4.40
2023-02-08T02:13:06.037Z,3.50
2023-02-08T02:15:34.093Z,3.60
2023-02-08T02:18:02.788Z,3.43
2023-02-08T02:20:45.581Z,3.60
2023-02-08T02:23:47.631Z,4.17
2023-02-08T02:26:54.280Z,3.43
2023-02-08T02:30:12.726Z,3.43
2023-02-08T02:33:12.956Z,3.23
2023-02-08T02:35:48.134Z,3.40
2023-02-08T02:38:23.110Z,3.30
2023-02-08T02:41:05.316Z,3.53
2023-02-08T02:43:46.221Z,3.80
2023-02-08T02:46:28.331Z,3.60
2023-02-08T02:49:05.356Z,3.33
2023-02-08T02:51:41.774Z,3.47
2023-02-08T02:54:15.656Z,2.97
2023-02-08T02:56:46.293Z,4.10
2023-02-08T02:59:16.594Z,2.73
2023-02-08T03:01:46.375Z,3.10
2023-02-08T03:04:17.337Z,3.33
2023-02-08T03:06:58.769Z,3.30
2023-02-08T03:09:48.809Z,3.10
2023-02-08T03:12:28.789Z,3.10
2023-02-08T03:15:01.728Z,3.20
2023-02-08T03:17:44.878Z,3.47
2023-02-08T03:20:17.567Z,3.20
2023-02-08T03:22:54.693Z,3.77
2023-02-08T03:25:27.981Z,3.87
2023-02-08T03:28:02.719Z,3.53
2023-02-08T03:30:35.117Z,3.90
2023-02-08T03:33:07.952Z,3.70
2023-02-08T03:35:42.931Z,3.63
2023-02-08T03:38:15.240Z,3.23
2023-02-08T03:40:45.447Z,3.87
2023-02-08T03:43:17.778Z,3.20
2023-02-08T03:45:51.649Z,3.87
2023-02-08T03:48:22.380Z,3.60
2023-02-08T03:50:56.613Z,3.40
2023-02-08T03:53:27.371Z,3.43
2023-02-08T03:56:01.258Z,3.43
2023-02-08T03:58:35.158Z,3.57
2023-02-08T04:01:08.899Z,3.80
2023-02-08T04:03:38.273Z,3.57
2023-02-08T04:06:07.945Z,3.43
2023-02-08T04:08:35.821Z,3.80
2023-02-08T04:11:03.700Z,2.83
2023-02-08T04:13:31.627Z,3.40
2023-02-08T04:15:59.504Z,4.00
2023-02-08T04:18:27.655Z,3.87
2023-02-08T04:20:55.528Z,3.07
2023-02-08T04:23:24.804Z,3.20
2023-02-08T04:25:52.673Z,3.63
2023-02-08T04:28:20.646Z,3.70
2023-02-08T04:30:48.628Z,4.20
2023-02-08T04:33:16.816Z,4.53
2023-02-08T04:35:44.868Z,3.37
2023-02-08T04:38:12.732Z,4.13
2023-02-08T04:40:42.343Z,4.23
2023-02-08T04:43:10.477Z,3.93
2023-02-08T04:45:38.291Z,3.80
2023-02-08T04:48:07.410Z,3.67
2023-02-08T04:50:35.982Z,3.70
2023-02-08T04:53:03.969Z,3.83
2023-02-08T04:55:31.875Z,3.80
2023-02-08T04:58:01.109Z,3.63
2023-02-08T05:00:29.220Z,4.07
2023-02-08T05:02:58.097Z,4.10
2023-02-08T05:05:27.140Z,3.50
2023-02-08T05:07:55.188Z,3.93
2023-02-08T05:10:23.461Z,3.73
2023-02-08T05:12:51.478Z,3.93
2023-02-08T05:15:20.888Z,3.07
2023-02-08T05:17:48.899Z,4.40
2023-02-08T05:20:16.831Z,3.97
2023-02-08T05:22:45.031Z,3.20
2023-02-08T05:25:12.922Z,3.60
2023-02-08T05:27:40.823Z,3.77
2023-02-08T05:30:09.451Z,3.83
2023-02-08T05:32:38.809Z,3.90
2023-02-08T05:35:07.339Z,3.60
2023-02-08T05:37:35.230Z,3.30
2023-02-08T05:40:03.090Z,4.20
2023-02-08T05:42:31.104Z,3.80
2023-02-08T05:44:58.966Z,3.50
2023-02-08T05:47:26.856Z,3.63
2023-02-08T05:49:56.047Z,3.90
2023-02-08T05:52:23.938Z,3.83
2023-02-08T05:54:51.750Z,4.67
2023-02-08T05:57:19.605Z,3.60
2023-02-08T05:59:47.520Z,3.67
2023-02-08T06:02:15.438Z,3.77
2023-02-08T06:04:43.280Z,4.20
2023-02-08T06:07:12.539Z,3.83
2023-02-08T06:09:40.390Z,3.97
2023-02-08T06:12:08.755Z,4.50
2023-02-08T06:14:36.613Z,3.27
2023-02-08T06:17:04.483Z,4.30
2023-02-08T06:19:32.338Z,3.90
2023-02-08T06:22:00.198Z,3.60
2023-02-08T06:24:29.445Z,3.67
2023-02-08T06:26:58.145Z,4.10
2023-02-08T06:29:26.229Z,3.80
2023-02-08T06:31:54.403Z,3.40
2023-02-08T06:34:22.464Z,3.93
2023-02-08T06:36:51.005Z,3.77
2023-02-08T06:39:18.926Z,3.70
2023-02-08T06:41:48.159Z,4.00
2023-02-08T06:44:16.151Z,4.77
2023-02-08T06:46:43.971Z,3.60
2023-02-08T06:49:12.614Z,3.90
2023-02-08T06:51:40.811Z,3.70
2023-02-08T06:54:08.783Z,3.57
2023-02-08T06:56:36.806Z,4.63
2023-02-08T06:59:06.041Z,3.50
2023-02-08T07:01:33.980Z,3.80
2023-02-08T07:04:01.888Z,4.20
2023-02-08T07:06:29.810Z,3.80
2023-02-08T07:08:57.737Z,3.60
2023-02-08T07:11:25.665Z,3.40
2023-02-08T07:13:54.580Z,3.73
2023-02-08T07:16:24.570Z,4.23
2023-02-08T07:18:52.483Z,3.80
2023-02-08T07:21:21.563Z,3.87
2023-02-08T07:23:49.663Z,3.87
2023-02-08T07:26:17.564Z,5.00
2023-02-08T07:28:45.588Z,4.43
2023-02-08T07:31:15.420Z,4.03
2023-02-08T07:33:45.129Z,4.17
2023-02-08T07:36:13.255Z,4.20
2023-02-08T07:38:41.130Z,4.17
2023-02-08T07:41:10.769Z,4.77
2023-02-08T07:43:39.293Z,3.50
2023-02-08T07:46:08.425Z,3.97
2023-02-08T07:48:38.515Z,3.60
2023-02-08T07:51:09.717Z,4.43
2023-02-08T07:53:37.863Z,4.60
2023-02-08T07:56:06.796Z,4.13
2023-02-08T07:58:34.715Z,4.03
2023-02-08T08:01:15.866Z,3.53
2023-02-08T08:03:49.197Z,4.37
2023-02-08T08:06:18.952Z,4.50
2023-02-08T08:08:47.675Z,3.50
2023-02-08T08:11:15.682Z,4.10
2023-02-08T08:13:43.726Z,4.77
2023-02-08T08:16:11.966Z,4.73
2023-02-08T08:18:40.135Z,3.87
2023-02-08T08:21:08.675Z,4.97
2023-02-08T08:23:37.909Z,4.50
2023-02-08T08:26:10.392Z,4.30
2023-02-08T08:28:38.652Z,4.10
2023-02-08T08:31:11.063Z,4.17
2023-02-08T08:33:38.981Z,3.97
2023-02-08T08:36:07.501Z,4.97
2023-02-08T08:38:38.618Z,4.30
2023-02-08T08:41:09.199Z,4.70
2023-02-08T08:43:37.091Z,3.70
2023-02-08T08:46:06.878Z,4.37
2023-02-08T08:48:35.172Z,4.23
2023-02-08T08:51:03.173Z,4.40
2023-02-08T08:53:31.503Z,3.97
2023-02-08T08:56:01.034Z,4.70
2023-02-08T08:58:29.121Z,3.90
2023-02-08T09:00:57.740Z,3.87
2023-02-08T09:03:25.959Z,4.27
2023-02-08T09:05:53.935Z,4.40
2023-02-08T09:08:21.856Z,4.57
2023-02-08T09:10:49.806Z,5.50
2023-02-08T09:13:21.238Z,4.47
2023-02-08T09:15:49.919Z,4.57
2023-02-08T09:18:17.844Z,4.77
2023-02-08T09:20:45.981Z,4.27
2023-02-08T09:23:14.634Z,4.20
2023-02-08T09:25:42.750Z,4.47
2023-02-08T09:28:10.703Z,4.70
2023-02-08T09:30:40.153Z,4.47
2023-02-08T09:33:08.128Z,4.30
2023-02-08T09:35:35.992Z,4.60
2023-02-08T09:38:05.354Z,4.57
2023-02-08T09:40:42.840Z,4.40
2023-02-08T09:43:19.367Z,4.23
2023-02-08T09:45:59.816Z,4.37
2023-02-08T09:48:30.652Z,4.63
2023-02-08T09:51:05.395Z,3.60
2023-02-08T09:53:36.640Z,4.60
2023-02-08T09:56:06.954Z,4.33
2023-02-08T09:58:39.230Z,4.80
2023-02-08T10:01:18.470Z,4.60
2023-02-08T10:03:47.313Z,4.17
2023-02-08T10:06:18.313Z,4.20
2023-02-08T10:08:50.355Z,4.40
2023-02-08T10:11:31.065Z,4.03
2023-02-08T10:14:11.242Z,4.03
2023-02-08T10:16:54.700Z,4.13
2023-02-08T10:19:35.791Z,4.00
2023-02-08T10:22:17.510Z,3.90
2023-02-08T10:25:13.941Z,3.93
2023-02-08T10:27:50.635Z,4.23
2023-02-08T10:30:29.595Z,4.07
2023-02-08T10:33:04.073Z,4.17
2023-02-08T10:35:37.218Z,4.20
2023-02-08T10:38:24.980Z,4.37
2023-02-08T10:40:57.494Z,4.30
2023-02-08T10:43:35.252Z,4.63
2023-02-08T10:46:10.178Z,4.97
2023-02-08T10:48:50.378Z,5.23
2023-02-08T10:51:23.505Z,4.10
2023-02-08T10:53:51.822Z,4.47
2023-02-08T10:56:44.103Z,3.80
2023-02-08T10:59:17.943Z,4.57
2023-02-08T11:01:48.233Z,4.60
2023-02-08T11:04:18.212Z,3.97
2023-02-08T11:06:47.172Z,3.97
2023-02-08T11:09:27.756Z,4.77
2023-02-08T11:11:57.045Z,4.30
2023-02-08T11:14:40.915Z,4.43
2023-02-08T11:17:27.177Z,4.40
2023-02-08T11:19:57.354Z,4.40
2023-02-08T11:22:28.013Z,3.73
2023-02-08T11:24:57.920Z,4.43
2023-02-08T11:27:37.431Z,3.93
2023-02-08T11:30:19.983Z,4.27
2023-02-08T11:32:49.704Z,3.90
2023-02-08T11:35:24.440Z,4.30
2023-02-08T11:37:54.093Z,4.30
2023-02-08T11:40:24.376Z,5.07
2023-02-08T11:42:53.426Z,4.40
2023-02-08T11:45:24.917Z,4.17
2023-02-08T11:47:53.371Z,4.03
2023-02-08T11:50:26.493Z,3.23
2023-02-08T11:52:58.865Z,4.17
2023-02-08T11:55:29.233Z,3.90
2023-02-08T11:58:00.967Z,4.10
2023-02-08T12:00:31.113Z,4.10
2023-02-08T12:03:02.293Z,3.93
2023-02-08T12:05:44.873Z,4.13
2023-02-08T12:08:23.048Z,4.37
2023-02-08T12:11:08.866Z,4.00
2023-02-08T12:14:04.229Z,4.10
2023-02-08T12:16:50.370Z,3.40
2023-02-08T12:19:53.820Z,3.70
2023-02-08T12:22:27.112Z,4.23
2023-02-08T12:25:10.461Z,4.40
2023-02-08T12:27:44.176Z,3.40
2023-02-08T12:30:22.837Z,4.40
2023-02-08T12:33:05.547Z,4.30
2023-02-08T12:36:03.602Z,3.50
2023-02-08T12:39:18.284Z,4.33
2023-02-08T12:41:55.146Z,3.70
2023-02-08T12:44:33.316Z,3.43
2023-02-08T12:47:10.081Z,3.50
2023-02-08T12:49:52.430Z,3.63
2023-02-08T12:52:31.920Z,3.50
2023-02-08T12:55:06.320Z,3.40
2023-02-08T12:57:34.522Z,3.23
2023-02-08T13:00:06.466Z,3.20
2023-02-08T13:02:44.298Z,3.13
2023-02-08T13:05:18.666Z,3.57
2023-02-08T13:07:50.466Z,3.10
2023-02-08T13:10:28.026Z,3.20
2023-02-08T13:12:59.545Z,3.37
2023-02-08T13:15:36.102Z,3.00
2023-02-08T13:18:11.849Z,4.10
2023-02-08T13:20:44.081Z,4.03
2023-02-08T13:23:19.135Z,2.97
2023-02-08T13:25:49.986Z,3.27
2023-02-08T13:28:21.437Z,3.37
2023-02-08T13:31:00.583Z,3.60
2023-02-08T13:33:35.863Z,3.93
2023-02-08T13:36:04.863Z,2.67
2023-02-08T13:38:35.772Z,3.43
2023-02-08T13:41:14.229Z,3.57
2023-02-08T13:43:47.316Z,3.30
2023-02-08T13:46:16.995Z,3.37
2023-02-08T13:48:48.386Z,3.20
2023-02-08T13:51:53.797Z,2.80
2023-02-08T13:54:21.952Z,2.90
2023-02-08T13:56:52.972Z,3.33
2023-02-08T13:59:34.012Z,4.07
2023-02-08T14:02:29.828Z,3.70
2023-02-08T14:05:44.167Z,3.30
2023-02-08T14:08:22.035Z,3.07
2023-02-08T14:11:03.716Z,3.03
2023-02-08T14:13:40.458Z,3.20
2023-02-08T14:16:30.015Z,2.70
2023-02-08T14:18:59.254Z,2.90
2023-02-08T14:21:33.061Z,3.50
2023-02-08T14:24:03.787Z,2.87
2023-02-08T14:26:32.583Z,2.80
2023-02-08T14:29:04.677Z,3.00
2023-02-08T14:31:42.604Z,3.10
2023-02-08T14:34:35.204Z,2.80
2023-02-08T14:37:07.298Z,2.60
2023-02-08T14:39:37.291Z,3.40
2023-02-08T14:42:08.682Z,3.03
2023-02-08T14:45:03.376Z,3.47
2023-02-08T14:48:17.159Z,3.20
2023-02-08T14:51:07.458Z,3.57
2023-02-08T14:53:43.489Z,3.30
2023-02-08T14:56:17.607Z,3.30
2023-02-08T14:58:47.688Z,3.33
2023-02-08T15:01:21.354Z,2.93
2023-02-08T15:03:51.701Z,3.50
2023-02-08T15:07:00.195Z,3.50
2023-02-08T15:09:31.139Z,3.60
2023-02-08T15:12:02.781Z,3.60
2023-02-08T15:14:31.995Z,3.53
2023-02-08T15:17:02.021Z,3.40
2023-02-08T15:19:34.103Z,3.37
2023-02-08T15:22:29.250Z,2.90
2023-02-08T15:25:01.093Z,3.23
2023-02-08T15:27:31.689Z,3.03
2023-02-08T15:30:00.283Z,3.40
2023-02-08T15:32:30.901Z,3.30
2023-02-08T15:35:00.656Z,3.03
2023-02-08T15:37:31.456Z,3.53
2023-02-08T15:40:01.088Z,3.10
2023-02-08T15:42:30.618Z,3.20
2023-02-08T15:45:00.451Z,3.07
2023-02-08T15:47:32.572Z,3.63
2023-02-08T15:50:01.433Z,3.33
2023-02-08T15:52:31.404Z,3.90
2023-02-08T15:54:59.306Z,2.80
2023-02-08T15:57:37.226Z,3.20
2023-02-08T16:00:14.098Z,2.90
2023-02-08T16:02:43.855Z,3.10
2023-02-08T16:05:21.180Z,2.93
2023-02-08T16:07:51.714Z,3.50
2023-02-08T16:10:26.249Z,3.60
2023-02-08T16:12:57.262Z,3.27
2023-02-08T16:15:43.647Z,3.20
2023-02-08T16:18:35.759Z,3.73
2023-02-08T16:21:06.105Z,2.90
2023-02-08T16:23:35.997Z,3.27
2023-02-08T16:26:19.219Z,2.70
2023-02-08T16:28:54.157Z,3.70
2023-02-08T16:31:26.468Z,3.57
2023-02-08T16:34:01.485Z,3.50
2023-02-08T16:36:36.004Z,2.97
2023-02-08T16:39:39.361Z,3.20
2023-02-08T16:42:19.639Z,3.00
2023-02-08T16:45:01.282Z,3.40
2023-02-08T16:47:36.904Z,3.13
2023-02-08T16:50:06.984Z,3.67
2023-02-08T16:52:35.535Z,3.80
2023-02-08T16:55:04.079Z,3.33
2023-02-08T16:57:42.975Z,3.50
2023-02-08T17:00:23.332Z,3.60
2023-02-08T17:02:52.511Z,3.10
2023-02-08T17:05:23.642Z,3.33
2023-02-08T17:07:52.186Z,3.57
2023-02-08T17:10:28.795Z,3.33
2023-02-08T17:13:13.405Z,3.43
2023-02-08T17:15:46.241Z,2.50
2023-02-08T17:18:14.596Z,3.80
2023-02-08T17:20:43.956Z,3.10
2023-02-08T17:23:12.615Z,3.00
2023-02-08T17:25:40.774Z,3.80
2023-02-08T17:28:12.929Z,3.70
2023-02-08T17:30:43.293Z,3.93
2023-02-08T17:33:17.946Z,3.00
2023-02-08T17:35:49.397Z,3.50
2023-02-08T17:38:17.875Z,3.93
2023-02-08T17:40:46.591Z,3.50
2023-02-08T17:43:15.084Z,3.50
2023-02-08T17:45:44.551Z,3.60
2023-02-08T17:48:14.325Z,3.60
2023-02-08T17:50:43.830Z,3.40
2023-02-08T17:53:13.736Z,3.60
2023-02-08T17:55:43.324Z,3.13
2023-02-08T17:58:11.763Z,3.40
2023-02-08T18:00:40.328Z,3.80
2023-02-08T18:03:08.292Z,4.03
2023-02-08T18:05:36.870Z,3.73
2023-02-08T18:08:04.803Z,3.80
2023-02-08T18:10:34.265Z,3.70
2023-02-08T18:13:02.194Z,3.50
2023-02-08T18:15:30.065Z,3.20
2023-02-08T18:17:57.895Z,3.90
2023-02-08T18:20:25.749Z,3.90
2023-02-08T18:22:53.615Z,3.53
2023-02-08T18:25:21.791Z,4.80
2023-02-08T18:27:52.569Z,3.83
2023-02-08T18:30:20.777Z,3.73
2023-02-08T18:32:48.646Z,3.47
2023-02-08T18:35:16.539Z,3.90
2023-02-08T18:37:46.408Z,3.40
2023-02-08T18:40:14.284Z,3.30
2023-02-08T18:42:42.140Z,4.10
2023-02-08T18:45:11.855Z,4.20
2023-02-08T18:47:40.220Z,3.97
2023-02-08T18:50:09.982Z,4.00
2023-02-08T18:52:37.990Z,4.07
2023-02-08T18:55:06.413Z,3.53
2023-02-08T18:57:38.710Z,4.23
2023-02-08T19:00:07.566Z,3.63
2023-02-08T19:02:39.395Z,3.80
2023-02-08T19:05:07.964Z,3.80
2023-02-08T19:07:38.713Z,4.17
2023-02-08T19:10:07.391Z,4.10
2023-02-08T19:12:37.204Z,3.77
2023-02-08T19:15:05.535Z,4.00
2023-02-08T19:17:33.432Z,4.00
2023-02-08T19:20:02.664Z,5.07
2023-02-08T19:22:30.517Z,4.27
2023-02-08T19:24:58.414Z,4.40
2023-02-08T19:27:26.364Z,4.50
2023-02-08T19:29:56.193Z,3.60
2023-02-08T19:32:24.366Z,4.40
2023-02-08T19:34:52.226Z,3.73
2023-02-08T19:37:21.483Z,4.20
2023-02-08T19:39:49.381Z,4.30
2023-02-08T19:42:17.238Z,4.30
2023-02-08T19:44:45.146Z,4.70
2023-02-08T19:47:13.014Z,3.80
2023-02-08T19:49:40.884Z,4.27
2023-02-08T19:52:08.764Z,4.20
2023-02-08T19:54:38.041Z,4.40
2023-02-08T19:57:05.967Z,3.90
2023-02-08T19:59:35.359Z,3.60
2023-02-08T20:02:03.850Z,4.53
2023-02-08T20:04:31.791Z,4.03
2023-02-08T20:06:59.669Z,4.33
2023-02-08T20:09:27.533Z,4.87
2023-02-08T20:11:57.900Z,4.20
2023-02-08T20:14:28.814Z,3.30
2023-02-08T20:16:57.110Z,4.10
2023-02-08T20:19:25.233Z,4.97
2023-02-08T20:21:53.549Z,4.83
2023-02-08T20:24:21.683Z,4.10
2023-02-08T20:26:50.033Z,4.17
2023-02-08T20:29:19.633Z,4.07
2023-02-08T20:31:48.947Z,3.77
2023-02-08T20:34:18.852Z,4.77
2023-02-08T20:37:04.556Z,4.67
2023-02-08T20:39:34.356Z,4.63
2023-02-08T20:42:02.249Z,4.40
2023-02-08T20:44:32.083Z,4.17
2023-02-08T20:47:00.001Z,4.70
2023-02-08T20:49:27.890Z,4.23
2023-02-08T20:51:55.969Z,4.40
2023-02-08T20:54:24.936Z,4.53
2023-02-08T20:56:53.992Z,4.23
2023-02-08T20:59:22.413Z,3.60
2023-02-08T21:01:52.065Z,4.23
2023-02-08T21:04:23.365Z,4.90
2023-02-08T21:06:53.657Z,4.00
2023-02-08T21:09:21.986Z,4.20
2023-02-08T21:11:50.681Z,4.70
2023-02-08T21:14:20.901Z,3.40
2023-02-08T21:16:51.150Z,4.30
2023-02-08T21:19:21.420Z,4.00
2023-02-08T21:21:51.626Z,4.77
2023-02-08T21:24:19.595Z,4.77
2023-02-08T21:26:47.785Z,4.40
2023-02-08T21:29:15.664Z,5.17
2023-02-08T21:31:43.792Z,4.90
2023-02-08T21:34:12.951Z,4.63
2023-02-08T21:36:42.193Z,4.50
2023-02-08T21:39:10.083Z,4.90
2023-02-08T21:41:38.171Z,4.23
2023-02-08T21:44:08.101Z,4.20
2023-02-08T21:46:36.276Z,3.90
2023-02-08T21:49:22.013Z,5.47
2023-02-08T21:52:08.756Z,4.67
2023-02-08T21:54:43.965Z,4.93
2023-02-08T21:57:15.298Z,4.90
2023-02-08T21:59:43.733Z,5.00
2023-02-08T22:02:14.870Z,4.10
2023-02-08T22:05:00.381Z,4.87
2023-02-08T22:07:30.611Z,4.90
2023-02-08T22:09:58.521Z,4.93
2023-02-08T22:12:26.421Z,4.90
2023-02-08T22:14:54.361Z,5.20
2023-02-08T22:17:22.254Z,4.40
2023-02-08T22:19:50.121Z,5.10
2023-02-08T22:22:18.087Z,4.03
2023-02-08T22:24:47.319Z,5.50
2023-02-08T22:27:15.247Z,4.00
2023-02-08T22:29:43.123Z,4.70
2023-02-08T22:32:12.523Z,4.60
2023-02-08T22:34:40.586Z,6.00
2023-02-08T22:37:08.475Z,4.70
2023-02-08T22:39:36.407Z,5.00
2023-02-08T22:42:10.345Z,4.70
2023-02-08T22:44:38.777Z,5.33
2023-02-08T22:47:08.580Z,4.73
2023-02-08T22:49:36.899Z,4.10
2023-02-08T22:52:06.486Z,5.40
2023-02-08T22:54:34.649Z,5.60
2023-02-08T22:57:02.663Z,5.00
2023-02-08T22:59:31.903Z,5.30
2023-02-08T23:02:01.557Z,4.50
2023-02-08T23:04:29.847Z,5.00
2023-02-08T23:06:58.196Z,5.10
2023-02-08T23:09:26.372Z,5.63
2023-02-08T23:11:54.359Z,5.13
2023-02-08T23:14:22.246Z,5.30
2023-02-08T23:16:51.420Z,4.83
2023-02-08T23:19:19.994Z,4.90
2023-02-08T23:21:48.054Z,5.20
2023-02-08T23:24:16.150Z,5.70
2023-02-08T23:26:44.058Z,4.57
2023-02-08T23:29:11.936Z,5.10
2023-02-08T23:31:41.283Z,5.73
2023-02-08T23:34:11.409Z,5.27
2023-02-08T23:36:40.308Z,4.17
2023-02-08T23:39:08.230Z,5.27
2023-02-08T23:41:36.086Z,4.77
2023-02-08T23:44:04.030Z,5.00
2023-02-08T23:46:32.177Z,5.03
2023-02-08T23:49:00.251Z,5.40
2023-02-08T23:51:29.563Z,5.80
2023-02-08T23:53:57.527Z,4.37
2023-02-08T23:56:27.263Z,5.77
2023-02-08T23:58:57.184Z,4.20
